Causey, New Mexico
Current Conditions -  °F | °C
As of 7:58 AM on Saturday 20 Dec 2014 (Local Time) from KCVS Reporting Station
Clear Clear  
Wind Chill: 24°   Ceiling: Unl
Heat Index: 24°   Visibility: 10mi
Dew Point: 23°   Wind: 3mph
Humidity: 94%   Direction: 240°WSW
Pressure: 30.08"   Gusts: NA
Location:  33.88°N, 103.13°W
Report Text: KCVS 201458Z AUTO 24003KT 10SM CLR M04/M05 A3008 RMK AO2 SLP206 T10441052 51003 $
Loading
Personal Weather Stations






























Interactive Weather Map New forecast layout! Learn more

10-Day Weather Forecast

Advertisements
Track Severe Weather on mobile